createdAt,value
2022-10-01T00:00:04.000Z,88.43
2022-10-01T00:01:04.061Z,88.43
2022-10-01T00:02:04.000Z,88.02
2022-10-01T00:03:03.986Z,88.43
2022-10-01T00:04:03.924Z,88.23
2022-10-01T00:05:03.914Z,88.02
2022-10-01T00:06:03.918Z,87.82
2022-10-01T00:07:03.876Z,87.57
2022-10-01T00:08:03.854Z,87.71
2022-10-01T00:09:03.838Z,87.40
2022-10-01T00:10:03.822Z,86.85
2022-10-01T00:11:03.833Z,87.46
2022-10-01T00:12:03.785Z,86.75
2022-10-01T00:13:03.771Z,86.44
2022-10-01T00:14:03.751Z,86.44
2022-10-01T00:15:06.127Z,86.44
2022-10-01T00:16:04.773Z,86.03
2022-10-01T00:17:03.695Z,86.33
2022-10-01T00:18:03.675Z,86.75
2022-10-01T00:19:03.900Z,87.16
2022-10-01T00:20:10.505Z,86.68
2022-10-01T00:21:04.650Z,86.44
2022-10-01T00:22:03.603Z,86.54
2022-10-01T00:23:03.594Z,87.67
2022-10-01T00:24:03.571Z,86.54
2022-10-01T00:25:03.549Z,86.24
2022-10-01T00:26:03.556Z,86.24
2022-10-01T00:27:03.514Z,86.85
2022-10-01T00:28:03.544Z,86.58
2022-10-01T00:29:03.482Z,86.85
2022-10-01T00:30:03.468Z,87.26
2022-10-01T00:31:03.510Z,86.68
2022-10-01T00:32:03.472Z,86.79
2022-10-01T00:33:03.409Z,86.89
2022-10-01T00:34:03.400Z,86.79
2022-10-01T00:35:03.377Z,86.79
2022-10-01T00:36:03.388Z,87.30
2022-10-01T00:37:03.341Z,87.51
2022-10-01T00:38:03.326Z,87.30
2022-10-01T00:39:03.315Z,87.61
2022-10-01T00:40:03.296Z,87.61
2022-10-01T00:41:03.303Z,87.30
2022-10-01T00:42:03.258Z,87.61
2022-10-01T00:43:03.241Z,87.40
2022-10-01T00:44:03.227Z,87.30
2022-10-01T00:45:03.209Z,87.40
2022-10-01T00:46:03.265Z,87.40
2022-10-01T00:47:03.174Z,87.40
2022-10-01T00:48:03.155Z,87.45
2022-10-01T00:49:03.142Z,87.51
2022-10-01T00:50:03.120Z,87.40
2022-10-01T00:51:03.130Z,87.10
2022-10-01T00:52:03.083Z,87.51
2022-10-01T00:53:03.064Z,87.51
2022-10-01T00:54:03.046Z,87.51
2022-10-01T00:55:03.030Z,87.61
2022-10-01T00:56:03.046Z,87.51
2022-10-01T00:57:02.993Z,87.51
2022-10-01T00:58:03.009Z,87.61
2022-10-01T00:59:02.966Z,87.61
2022-10-01T01:00:02.949Z,87.51
2022-10-01T01:01:02.948Z,87.40
2022-10-01T01:02:02.993Z,87.45
2022-10-01T01:03:02.919Z,87.45
2022-10-01T01:04:02.877Z,87.51
2022-10-01T01:05:02.853Z,87.55
2022-10-01T01:06:02.832Z,88.06
2022-10-01T01:07:02.840Z,88.12
2022-10-01T01:08:02.802Z,87.92
2022-10-01T01:09:02.780Z,87.71
2022-10-01T01:10:02.767Z,87.40
2022-10-01T01:11:02.748Z,87.45
2022-10-01T01:12:02.764Z,87.51
2022-10-01T01:13:02.709Z,87.61
2022-10-01T01:14:02.689Z,87.55
2022-10-01T01:15:02.671Z,87.51
2022-10-01T01:16:02.700Z,87.40
2022-10-01T01:17:02.671Z,87.65
2022-10-01T01:18:02.617Z,87.45
2022-10-01T01:19:02.598Z,87.51
2022-10-01T01:20:02.585Z,87.40
2022-10-01T01:21:02.565Z,87.71
2022-10-01T01:22:02.575Z,87.71
2022-10-01T01:23:02.540Z,87.75
2022-10-01T01:24:02.510Z,87.51
2022-10-01T01:25:02.496Z,87.65
2022-10-01T01:26:02.487Z,87.92
2022-10-01T01:27:02.489Z,87.51
2022-10-01T01:28:02.492Z,87.61
2022-10-01T01:29:02.423Z,87.92
2022-10-01T01:30:02.414Z,87.85
2022-10-01T01:31:02.404Z,87.55
2022-10-01T01:32:02.409Z,87.40
2022-10-01T01:33:02.363Z,87.40
2022-10-01T01:34:02.340Z,87.61
2022-10-01T01:35:02.345Z,86.89
2022-10-01T01:36:02.304Z,86.33
2022-10-01T01:37:02.317Z,86.68
2022-10-01T01:38:02.271Z,87.30
2022-10-01T01:39:02.252Z,87.46
2022-10-01T01:40:02.234Z,87.37
2022-10-01T01:41:02.247Z,86.75
2022-10-01T01:42:02.229Z,87.61
2022-10-01T01:43:02.183Z,86.48
2022-10-01T01:44:02.167Z,87.26
2022-10-01T01:45:02.148Z,86.54
2022-10-01T01:46:02.186Z,86.33
2022-10-01T01:47:02.148Z,87.05
2022-10-01T01:48:02.105Z,86.54
2022-10-01T01:49:02.077Z,87.37
2022-10-01T01:50:02.063Z,87.26
2022-10-01T01:51:02.038Z,87.46
2022-10-01T01:52:02.048Z,87.26
2022-10-01T01:53:02.009Z,87.77
2022-10-01T01:54:01.989Z,88.08
2022-10-01T01:55:01.970Z,87.92
2022-10-01T01:56:01.951Z,88.43
2022-10-01T01:57:01.961Z,88.02
2022-10-01T01:58:01.921Z,88.64
2022-10-01T01:59:01.899Z,87.71
2022-10-01T02:00:01.885Z,87.88
2022-10-01T02:01:01.866Z,88.43
2022-10-01T02:02:02.035Z,87.88
2022-10-01T02:03:01.880Z,87.26
2022-10-01T02:04:01.812Z,87.16
2022-10-01T02:05:01.796Z,87.57
2022-10-01T02:06:01.777Z,87.67
2022-10-01T02:07:01.787Z,87.67
2022-10-01T02:08:01.746Z,87.26
2022-10-01T02:09:01.729Z,87.37
2022-10-01T02:10:01.707Z,87.46
2022-10-01T02:11:01.686Z,87.46
2022-10-01T02:12:01.699Z,87.67
2022-10-01T02:13:01.650Z,87.77
2022-10-01T02:14:01.638Z,87.98
2022-10-01T02:15:01.617Z,88.29
2022-10-01T02:16:01.681Z,87.98
2022-10-01T02:17:01.627Z,88.59
2022-10-01T02:18:01.564Z,88.18
2022-10-01T02:19:01.562Z,87.77
2022-10-01T02:20:01.532Z,87.98
2022-10-01T02:21:01.507Z,87.88
2022-10-01T02:22:01.517Z,87.98
2022-10-01T02:23:01.476Z,87.77
2022-10-01T02:24:01.456Z,87.98
2022-10-01T02:25:01.437Z,87.77
2022-10-01T02:26:01.423Z,88.59
2022-10-01T02:27:01.432Z,87.77
2022-10-01T02:28:01.499Z,88.39
2022-10-01T02:29:01.369Z,88.59
2022-10-01T02:30:01.348Z,87.88
2022-10-01T02:31:02.444Z,87.77
2022-10-01T02:32:01.344Z,87.77
2022-10-01T02:33:01.302Z,87.77
2022-10-01T02:34:01.282Z,87.98
2022-10-01T02:35:01.264Z,87.98
2022-10-01T02:36:01.242Z,88.08
2022-10-01T02:37:01.252Z,88.70
2022-10-01T02:38:01.209Z,88.59
2022-10-01T02:39:01.196Z,87.88
2022-10-01T02:40:01.179Z,89.11
2022-10-01T02:41:01.162Z,89.21
2022-10-01T02:42:01.163Z,88.95
2022-10-01T02:43:01.122Z,89.42
2022-10-01T02:44:01.102Z,89.52
2022-10-01T02:45:01.094Z,89.25
2022-10-01T02:46:01.127Z,89.21
2022-10-01T02:47:01.080Z,89.42
2022-10-01T02:48:01.040Z,89.31
2022-10-01T02:49:01.018Z,89.11
2022-10-01T02:50:00.999Z,89.66
2022-10-01T02:51:00.982Z,89.21
2022-10-01T02:52:00.985Z,89.11
2022-10-01T02:53:01.949Z,89.62
2022-10-01T02:54:00.933Z,89.76
2022-10-01T02:55:00.906Z,89.42
2022-10-01T02:56:00.893Z,89.97
2022-10-01T02:57:00.904Z,90.28
2022-10-01T02:58:00.855Z,90.59
2022-10-01T02:59:00.834Z,90.38
2022-10-01T03:00:00.819Z,90.28
2022-10-01T03:01:00.800Z,91.00
2022-10-01T03:02:00.877Z,90.18
2022-10-01T03:03:00.820Z,90.38
2022-10-01T03:04:00.751Z,90.48
2022-10-01T03:05:00.740Z,90.69
2022-10-01T03:06:00.714Z,90.80
2022-10-01T03:07:00.725Z,90.69
2022-10-01T03:08:00.681Z,90.69
2022-10-01T03:09:00.659Z,91.00
2022-10-01T03:10:00.642Z,90.80
2022-10-01T03:11:00.623Z,90.59
2022-10-01T03:12:00.613Z,90.38
2022-10-01T03:13:00.616Z,90.28
2022-10-01T03:14:00.572Z,90.80
2022-10-01T03:15:00.555Z,91.00
2022-10-01T03:16:00.564Z,91.41
2022-10-01T03:17:00.518Z,91.20
2022-10-01T03:18:00.528Z,90.89
2022-10-01T03:19:00.482Z,91.41
2022-10-01T03:20:00.465Z,91.10
2022-10-01T03:21:00.445Z,91.25
2022-10-01T03:22:00.430Z,91.61
2022-10-01T03:23:00.437Z,91.82
2022-10-01T03:24:00.392Z,91.61
2022-10-01T03:25:00.377Z,91.51
2022-10-01T03:26:00.356Z,92.03
2022-10-01T03:27:00.343Z,91.76
2022-10-01T03:28:00.372Z,91.66
2022-10-01T03:29:00.302Z,92.13
2022-10-01T03:30:00.293Z,91.82
2022-10-01T03:31:00.300Z,91.72
2022-10-01T03:32:00.250Z,91.82
2022-10-01T03:33:00.257Z,92.27
2022-10-01T03:34:00.207Z,91.97
2022-10-01T03:35:00.198Z,91.76
2022-10-01T03:36:00.159Z,92.13
2022-10-01T03:37:01.153Z,91.72
2022-10-01T03:38:00.162Z,91.93
2022-10-01T03:39:00.122Z,92.03
2022-10-01T03:40:00.155Z,92.03
2022-10-01T03:41:00.093Z,92.03
2022-10-01T03:42:00.063Z,91.93
2022-10-01T03:43:00.080Z,91.72
2022-10-01T03:44:00.815Z,91.93
2022-10-01T03:45:01.013Z,91.72
2022-10-01T03:46:00.059Z,91.72
2022-10-01T03:46:59.979Z,91.51
2022-10-01T03:47:59.984Z,92.03
2022-10-01T03:48:59.938Z,91.72
2022-10-01T03:49:59.921Z,91.47
2022-10-01T03:50:59.914Z,91.37
2022-10-01T03:51:59.895Z,91.37
2022-10-01T03:52:59.897Z,91.72
2022-10-01T03:53:59.852Z,92.03
2022-10-01T03:54:59.835Z,91.88
2022-10-01T03:55:59.820Z,91.78
2022-10-01T03:56:59.802Z,91.99
2022-10-01T03:57:59.811Z,91.99
2022-10-01T03:58:59.764Z,91.99
2022-10-01T03:59:59.747Z,92.08
2022-10-01T04:00:59.733Z,93.42
2022-10-01T04:01:59.851Z,93.57
2022-10-01T04:02:59.770Z,92.85
2022-10-01T04:03:59.675Z,93.12
2022-10-01T04:04:59.662Z,93.12
2022-10-01T04:05:59.645Z,93.26
2022-10-01T04:06:59.626Z,93.93
2022-10-01T04:07:59.636Z,94.96
2022-10-01T04:08:59.591Z,94.34
2022-10-01T04:09:59.572Z,94.29
2022-10-01T04:10:59.556Z,94.80
2022-10-01T04:11:59.533Z,95.10
2022-10-01T04:12:59.547Z,96.65
2022-10-01T04:13:59.518Z,96.75
2022-10-01T04:14:59.484Z,96.34
2022-10-01T04:15:59.503Z,96.55
2022-10-01T04:16:59.447Z,96.95
2022-10-01T04:17:59.459Z,97.06
2022-10-01T04:18:59.412Z,96.85
2022-10-01T04:19:59.400Z,96.90
2022-10-01T04:20:59.379Z,97.37
2022-10-01T04:21:59.358Z,97.88
2022-10-01T04:22:59.367Z,98.50
2022-10-01T04:23:59.323Z,97.99
2022-10-01T04:24:59.307Z,98.03
2022-10-01T04:25:59.282Z,98.08
2022-10-01T04:26:59.268Z,98.54
2022-10-01T04:27:59.329Z,99.47
2022-10-01T04:28:59.232Z,99.26
2022-10-01T04:29:59.213Z,99.47
2022-10-01T04:30:59.196Z,99.37
2022-10-01T04:31:59.235Z,99.16
2022-10-01T04:32:59.192Z,99.16
2022-10-01T04:33:59.138Z,99.57
2022-10-01T04:35:00.124Z,99.67
2022-10-01T04:35:59.108Z,99.57
2022-10-01T04:36:59.118Z,99.57
2022-10-01T04:37:59.069Z,99.99
2022-10-01T04:39:02.203Z,99.99
2022-10-01T04:40:00.039Z,99.99
2022-10-01T04:40:59.019Z,99.99
2022-10-01T04:41:59.029Z,99.99
2022-10-01T04:42:58.986Z,99.99
2022-10-01T04:43:58.966Z,99.99
2022-10-01T04:44:58.947Z,99.99
2022-10-01T04:45:58.935Z,99.99
2022-10-01T04:46:58.995Z,99.99
2022-10-01T04:47:58.896Z,99.99
2022-10-01T04:48:58.893Z,99.99
2022-10-01T04:49:58.861Z,99.99
2022-10-01T04:50:58.849Z,99.99
2022-10-01T04:51:58.851Z,99.99
2022-10-01T04:52:58.808Z,99.99
2022-10-01T04:53:58.794Z,99.99
2022-10-01T04:54:58.769Z,99.99
2022-10-01T04:55:59.756Z,99.99
2022-10-01T04:56:58.764Z,99.99
2022-10-01T04:57:58.722Z,99.99
2022-10-01T04:58:58.702Z,99.99
2022-10-01T04:59:58.684Z,99.99
2022-10-01T05:01:02.017Z,99.99
2022-10-01T05:01:59.724Z,99.99
2022-10-01T05:02:58.631Z,99.99
2022-10-01T05:03:58.611Z,99.99
2022-10-01T05:04:58.592Z,99.99
2022-10-01T05:05:58.580Z,99.99
2022-10-01T05:06:58.586Z,99.99
2022-10-01T05:07:58.549Z,99.99
2022-10-01T05:08:58.525Z,99.99
2022-10-01T05:09:58.508Z,99.99
2022-10-01T05:10:58.490Z,99.99
2022-10-01T05:11:58.502Z,99.99
2022-10-01T05:12:58.454Z,99.99
2022-10-01T05:13:58.440Z,99.99
2022-10-01T05:14:58.415Z,99.99
2022-10-01T05:15:58.465Z,99.99
2022-10-01T05:16:58.414Z,99.99
2022-10-01T05:17:58.364Z,99.99
2022-10-01T05:18:58.346Z,99.99
2022-10-01T05:19:58.330Z,99.99
2022-10-01T05:20:58.311Z,99.99
2022-10-01T05:21:58.326Z,99.99
2022-10-01T05:22:58.277Z,99.99
2022-10-01T05:23:58.259Z,99.99
2022-10-01T05:24:58.245Z,99.99
2022-10-01T05:25:58.224Z,99.99
2022-10-01T05:26:58.232Z,99.99
2022-10-01T05:27:58.274Z,99.99
2022-10-01T05:28:58.171Z,99.99
2022-10-01T05:29:58.151Z,99.99
2022-10-01T05:30:58.138Z,99.99
2022-10-01T05:31:58.180Z,99.99
2022-10-01T05:32:58.097Z,99.99
2022-10-01T05:33:58.081Z,99.99
2022-10-01T05:34:58.065Z,99.99
2022-10-01T05:35:58.045Z,99.99
2022-10-01T05:36:58.054Z,99.99
2022-10-01T05:37:58.011Z,99.99
2022-10-01T05:38:57.991Z,99.99
2022-10-01T05:39:57.972Z,99.99
2022-10-01T05:40:57.953Z,99.99
2022-10-01T05:41:59.132Z,99.99
2022-10-01T05:42:57.916Z,99.99
2022-10-01T05:43:57.904Z,99.99
2022-10-01T05:44:57.878Z,99.99
2022-10-01T05:45:57.897Z,99.99
2022-10-01T05:46:57.869Z,99.99
2022-10-01T05:47:57.822Z,99.99
2022-10-01T05:48:57.806Z,99.99
2022-10-01T05:49:57.786Z,99.99
2022-10-01T05:50:57.809Z,99.99
2022-10-01T05:51:57.776Z,99.99
2022-10-01T05:52:57.734Z,99.99
2022-10-01T05:53:57.715Z,99.99
2022-10-01T05:54:57.695Z,99.99
2022-10-01T05:55:57.677Z,99.99
2022-10-01T05:56:57.692Z,99.99
2022-10-01T05:57:57.643Z,99.99
2022-10-01T05:58:57.621Z,99.99
2022-10-01T05:59:57.611Z,99.99
2022-10-01T06:00:57.588Z,99.99
2022-10-01T06:01:57.686Z,99.99
2022-10-01T06:02:57.691Z,99.99
2022-10-01T06:03:57.561Z,99.99
2022-10-01T06:04:57.516Z,99.99
2022-10-01T06:05:57.493Z,99.99
2022-10-01T06:06:57.504Z,99.99
2022-10-01T06:07:57.464Z,99.99
2022-10-01T06:08:57.470Z,99.99
2022-10-01T06:09:57.421Z,99.99
2022-10-01T06:10:57.403Z,99.99
2022-10-01T06:11:57.411Z,99.99
2022-10-01T06:12:57.366Z,99.99
2022-10-01T06:13:57.352Z,99.99
2022-10-01T06:14:57.330Z,99.99
2022-10-01T06:15:57.319Z,99.99
2022-10-01T06:16:57.360Z,99.99
2022-10-01T06:17:57.284Z,99.99
2022-10-01T06:18:57.261Z,99.99
2022-10-01T06:19:57.239Z,99.99
2022-10-01T06:20:57.224Z,99.99
2022-10-01T06:21:57.259Z,99.99
2022-10-01T06:22:57.180Z,99.99
2022-10-01T06:23:57.167Z,99.99
2022-10-01T06:24:57.147Z,99.99
2022-10-01T06:25:57.128Z,99.99
2022-10-01T06:26:57.138Z,99.99
2022-10-01T06:27:57.149Z,99.99
2022-10-01T06:28:57.072Z,99.99
2022-10-01T06:29:57.048Z,99.99
2022-10-01T06:30:57.036Z,99.99
2022-10-01T06:31:57.108Z,99.99
2022-10-01T06:32:57.003Z,99.99
2022-10-01T06:33:56.982Z,99.99
2022-10-01T06:34:56.961Z,99.99
2022-10-01T06:35:56.941Z,99.99
2022-10-01T06:36:56.950Z,99.99
2022-10-01T06:37:56.909Z,99.99
2022-10-01T06:38:56.894Z,99.99
2022-10-01T06:39:56.877Z,99.99
2022-10-01T06:40:56.854Z,99.99
2022-10-01T06:41:56.862Z,99.99
2022-10-01T06:42:56.951Z,99.99
2022-10-01T06:43:57.811Z,99.99
2022-10-01T06:44:56.783Z,99.99
2022-10-01T06:45:56.790Z,99.99
2022-10-01T06:46:56.772Z,99.99
2022-10-01T06:47:56.722Z,99.99
2022-10-01T06:48:56.705Z,99.99
2022-10-01T06:49:56.719Z,99.99
2022-10-01T06:50:56.672Z,99.99
2022-10-01T06:51:56.688Z,99.99
2022-10-01T06:52:56.624Z,99.99
2022-10-01T06:53:57.612Z,99.99
2022-10-01T06:54:56.626Z,99.99
2022-10-01T06:55:56.583Z,99.99
2022-10-01T06:56:56.563Z,99.99
2022-10-01T06:57:56.545Z,99.99
2022-10-01T06:58:56.527Z,99.99
2022-10-01T06:59:56.533Z,99.99
2022-10-01T07:00:56.684Z,99.99
2022-10-01T07:01:56.663Z,99.99
2022-10-01T07:02:56.481Z,99.99
2022-10-01T07:03:56.437Z,99.99
2022-10-01T07:04:56.421Z,99.99
2022-10-01T07:05:56.398Z,99.99
2022-10-01T07:06:56.383Z,99.99
2022-10-01T07:07:56.390Z,99.99
2022-10-01T07:08:56.347Z,99.99
2022-10-01T07:09:56.332Z,99.99
2022-10-01T07:10:56.310Z,99.99
2022-10-01T07:11:56.293Z,99.99
2022-10-01T07:12:56.302Z,99.99
2022-10-01T07:13:56.259Z,99.99
2022-10-01T07:14:56.244Z,99.99
2022-10-01T07:15:56.227Z,99.99
2022-10-01T07:16:56.242Z,99.99
2022-10-01T07:17:56.224Z,99.99
2022-10-01T07:18:56.176Z,99.99
2022-10-01T07:19:56.153Z,99.99
2022-10-01T07:20:56.175Z,99.99
2022-10-01T07:21:56.116Z,99.99
2022-10-01T07:22:56.101Z,99.99
2022-10-01T07:23:56.081Z,99.99
2022-10-01T07:24:56.063Z,99.99
2022-10-01T07:25:56.071Z,99.99
2022-10-01T07:26:56.023Z,99.99
2022-10-01T07:27:56.079Z,99.99
2022-10-01T07:28:55.989Z,99.99
2022-10-01T07:29:55.973Z,99.99
2022-10-01T07:30:55.955Z,99.99
2022-10-01T07:31:56.002Z,99.99
2022-10-01T07:32:55.943Z,99.99
2022-10-01T07:33:55.898Z,99.99
2022-10-01T07:34:55.882Z,99.99
2022-10-01T07:35:55.864Z,99.99
2022-10-01T07:36:55.844Z,99.99
2022-10-01T07:37:55.856Z,99.99
2022-10-01T07:38:55.810Z,99.99
2022-10-01T07:39:55.800Z,99.99
2022-10-01T07:40:55.779Z,99.99
2022-10-01T07:41:55.759Z,99.99
2022-10-01T07:42:55.782Z,99.99
2022-10-01T07:43:55.728Z,99.99
2022-10-01T07:44:55.701Z,99.99
2022-10-01T07:45:55.710Z,99.99
2022-10-01T07:46:55.664Z,99.99
2022-10-01T07:47:55.676Z,99.99
2022-10-01T07:48:55.626Z,99.99
2022-10-01T07:49:55.611Z,99.99
2022-10-01T07:50:55.593Z,99.99
2022-10-01T07:51:55.574Z,99.99
2022-10-01T07:52:55.584Z,99.99
2022-10-01T07:53:55.538Z,99.99
2022-10-01T07:54:55.521Z,99.99
2022-10-01T07:55:55.499Z,99.99
2022-10-01T07:56:55.483Z,99.99
2022-10-01T07:57:55.490Z,99.99
2022-10-01T07:58:55.443Z,99.99
2022-10-01T07:59:56.128Z,99.99
2022-10-01T08:00:56.470Z,99.99
2022-10-01T08:01:55.412Z,99.99
2022-10-01T08:02:55.399Z,99.99
2022-10-01T08:03:55.357Z,99.99
2022-10-01T08:04:55.335Z,99.99
2022-10-01T08:05:55.317Z,99.99
2022-10-01T08:06:55.298Z,99.99
2022-10-01T08:07:55.311Z,99.99
2022-10-01T08:08:55.267Z,99.99
2022-10-01T08:09:55.250Z,99.99
2022-10-01T08:10:55.231Z,99.99
2022-10-01T08:11:55.210Z,99.99
2022-10-01T08:12:55.223Z,99.99
2022-10-01T08:13:55.182Z,99.99
2022-10-01T08:14:55.241Z,99.99
2022-10-01T08:15:55.142Z,99.99
2022-10-01T08:16:55.235Z,99.99
2022-10-01T08:17:55.219Z,99.99
2022-10-01T08:18:55.087Z,99.99
2022-10-01T08:19:55.193Z,99.99
2022-10-01T08:20:55.075Z,99.99
2022-10-01T08:21:55.032Z,99.99
2022-10-01T08:22:55.049Z,99.99
2022-10-01T08:23:54.998Z,99.99
2022-10-01T08:24:54.982Z,99.99
2022-10-01T08:25:54.969Z,99.99
2022-10-01T08:26:54.943Z,99.99
2022-10-01T08:27:55.000Z,99.99
2022-10-01T08:28:54.906Z,99.99
2022-10-01T08:29:54.904Z,99.99
2022-10-01T08:30:54.911Z,99.99
2022-10-01T08:31:54.903Z,99.99
2022-10-01T08:32:54.875Z,99.99
2022-10-01T08:33:54.831Z,99.99
2022-10-01T08:34:56.742Z,99.99
2022-10-01T08:35:55.797Z,99.99
2022-10-01T08:36:54.782Z,99.99
2022-10-01T08:37:54.785Z,99.99
2022-10-01T08:38:54.767Z,99.99
2022-10-01T08:39:54.729Z,99.99
2022-10-01T08:40:54.716Z,99.99
2022-10-01T08:41:54.695Z,99.99
2022-10-01T08:42:54.704Z,99.99
2022-10-01T08:43:54.692Z,99.99
2022-10-01T08:44:54.649Z,99.99
2022-10-01T08:45:54.717Z,99.99
2022-10-01T08:46:54.608Z,99.99
2022-10-01T08:47:54.619Z,99.99
2022-10-01T08:48:57.061Z,99.99
2022-10-01T08:49:55.554Z,99.99
2022-10-01T08:50:54.538Z,99.99
2022-10-01T08:51:54.539Z,99.99
2022-10-01T08:52:54.524Z,99.99
2022-10-01T08:53:55.494Z,99.99
2022-10-01T08:54:54.485Z,99.99
2022-10-01T08:55:54.462Z,99.99
2022-10-01T08:56:54.458Z,99.99
2022-10-01T08:57:54.441Z,99.99
2022-10-01T08:58:54.401Z,99.99
2022-10-01T08:59:54.384Z,99.99
2022-10-01T09:00:54.408Z,99.99
2022-10-01T09:01:54.372Z,99.99
2022-10-01T09:02:54.352Z,99.99
2022-10-01T09:03:54.309Z,99.99
2022-10-01T09:04:57.698Z,99.99
2022-10-01T09:05:55.320Z,99.99
2022-10-01T09:06:54.256Z,99.99
2022-10-01T09:07:54.239Z,99.99
2022-10-01T09:08:54.224Z,99.99
2022-10-01T09:09:54.211Z,99.99
2022-10-01T09:10:54.219Z,99.99
2022-10-01T09:11:54.168Z,99.99
2022-10-01T09:12:54.182Z,99.99
2022-10-01T09:13:54.138Z,99.99
2022-10-01T09:14:54.115Z,99.99
2022-10-01T09:15:54.096Z,99.99
2022-10-01T09:16:54.126Z,99.99
2022-10-01T09:17:54.090Z,99.99
2022-10-01T09:18:54.998Z,99.99
2022-10-01T09:19:54.024Z,99.99
2022-10-01T09:20:54.006Z,99.99
2022-10-01T09:21:53.983Z,99.99
2022-10-01T09:22:54.115Z,99.66
2022-10-01T09:23:53.952Z,99.71
2022-10-01T09:24:53.931Z,98.99
2022-10-01T09:25:53.915Z,98.79
2022-10-01T09:26:53.897Z,99.20
2022-10-01T09:27:53.945Z,98.69
2022-10-01T09:28:53.857Z,98.38
2022-10-01T09:29:53.851Z,99.20
2022-10-01T09:30:53.829Z,97.92
2022-10-01T09:31:53.909Z,99.05
2022-10-01T09:32:53.838Z,98.85
2022-10-01T09:33:53.771Z,98.54
2022-10-01T09:34:53.746Z,98.29
2022-10-01T09:35:53.731Z,97.11
2022-10-01T09:36:53.714Z,97.31
2022-10-01T09:37:53.719Z,98.33
2022-10-01T09:38:53.675Z,98.44
2022-10-01T09:39:53.658Z,98.13
2022-10-01T09:40:53.636Z,98.07
2022-10-01T09:41:53.616Z,98.79
2022-10-01T09:42:53.627Z,98.74
2022-10-01T09:43:53.583Z,98.38
2022-10-01T09:44:53.554Z,98.44
2022-10-01T09:45:54.587Z,98.85
2022-10-01T09:46:53.524Z,98.33
2022-10-01T09:47:53.534Z,98.24
2022-10-01T09:48:53.490Z,98.85
2022-10-01T09:49:53.475Z,98.49
2022-10-01T09:50:53.454Z,98.33
2022-10-01T09:51:53.436Z,98.33
2022-10-01T09:52:53.449Z,98.33
2022-10-01T09:53:53.398Z,99.36
2022-10-01T09:54:53.379Z,99.41
2022-10-01T09:55:54.105Z,98.79
2022-10-01T09:56:53.340Z,99.20
2022-10-01T09:57:53.350Z,99.51
2022-10-01T09:58:53.304Z,99.91
2022-10-01T09:59:53.291Z,99.71
2022-10-01T10:00:53.271Z,99.41
2022-10-01T10:01:53.312Z,99.61
2022-10-01T10:02:53.334Z,99.91
2022-10-01T10:03:53.206Z,99.99
2022-10-01T10:04:53.199Z,99.56
2022-10-01T10:05:53.172Z,99.99
2022-10-01T10:06:53.156Z,99.99
2022-10-01T10:07:53.179Z,99.99
2022-10-01T10:08:53.119Z,99.99
2022-10-01T10:09:53.096Z,99.99
2022-10-01T10:10:53.078Z,99.99
2022-10-01T10:11:53.059Z,99.99
2022-10-01T10:12:53.067Z,99.99
2022-10-01T10:13:53.017Z,99.99
2022-10-01T10:14:52.997Z,99.98
2022-10-01T10:15:53.033Z,99.98
2022-10-01T10:16:52.961Z,99.99
2022-10-01T10:17:52.971Z,99.82
2022-10-01T10:18:52.924Z,99.93
2022-10-01T10:19:52.900Z,99.99
2022-10-01T10:20:52.928Z,99.99
2022-10-01T10:21:52.865Z,99.99
2022-10-01T10:22:52.877Z,99.99
2022-10-01T10:23:52.827Z,99.99
2022-10-01T10:24:52.812Z,99.99
2022-10-01T10:25:52.794Z,99.99
2022-10-01T10:26:52.770Z,99.99
2022-10-01T10:27:52.858Z,99.99
2022-10-01T10:28:52.735Z,99.99
2022-10-01T10:29:52.721Z,99.99
2022-10-01T10:30:52.698Z,99.99
2022-10-01T10:31:52.699Z,99.99
2022-10-01T10:32:52.689Z,99.88
2022-10-01T10:33:52.641Z,99.47
2022-10-01T10:34:52.622Z,99.32
2022-10-01T10:35:52.596Z,98.97
2022-10-01T10:36:52.583Z,98.36
2022-10-01T10:37:52.588Z,98.61
2022-10-01T10:38:52.545Z,98.36
2022-10-01T10:39:52.529Z,97.90
2022-10-01T10:40:52.501Z,98.21
2022-10-01T10:41:52.481Z,97.24
2022-10-01T10:42:52.494Z,97.09
2022-10-01T10:43:52.442Z,94.71
2022-10-01T10:44:52.421Z,94.97
2022-10-01T10:45:52.436Z,94.68
2022-10-01T10:46:52.435Z,93.60
2022-10-01T10:47:52.384Z,92.44
2022-10-01T10:48:52.339Z,91.17
2022-10-01T10:49:52.318Z,91.03
2022-10-01T10:50:52.507Z,90.62
2022-10-01T10:51:52.274Z,90.83
2022-10-01T10:52:52.283Z,88.34
2022-10-01T10:53:52.236Z,88.40
2022-10-01T10:54:53.085Z,87.45
2022-10-01T10:55:53.188Z,87.75
2022-10-01T10:56:52.169Z,88.46
2022-10-01T10:57:56.947Z,87.71
2022-10-01T10:58:53.122Z,85.52
2022-10-01T10:59:52.099Z,86.88
2022-10-01T11:00:52.083Z,87.65
2022-10-01T11:01:52.197Z,87.20
2022-10-01T11:02:52.059Z,87.30
2022-10-01T11:03:52.016Z,86.39
2022-10-01T11:04:52.001Z,86.69
2022-10-01T11:05:51.968Z,85.53
2022-10-01T11:06:51.939Z,84.83
2022-10-01T11:07:51.948Z,85.09
2022-10-01T11:08:51.890Z,84.83
2022-10-01T11:09:51.869Z,85.13
2022-10-01T11:10:51.856Z,85.80
2022-10-01T11:11:51.822Z,84.52
2022-10-01T11:12:51.826Z,85.50
2022-10-01T11:13:51.786Z,84.58
2022-10-01T11:14:51.753Z,84.04
2022-10-01T11:15:51.800Z,84.50
2022-10-01T11:16:51.717Z,83.09
2022-10-01T11:17:51.717Z,83.12
2022-10-01T11:18:51.669Z,84.44
2022-10-01T11:19:51.649Z,84.14
2022-10-01T11:20:51.635Z,83.94
2022-10-01T11:21:51.633Z,83.71
2022-10-01T11:22:51.608Z,86.59
2022-10-01T11:23:51.565Z,87.00
2022-10-01T11:24:51.557Z,86.29
2022-10-01T11:25:51.517Z,86.49
2022-10-01T11:26:53.397Z,87.40
2022-10-01T11:27:51.529Z,88.76
2022-10-01T11:28:51.462Z,89.05
2022-10-01T11:29:51.430Z,90.27
2022-10-01T11:30:51.419Z,90.44
2022-10-01T11:31:51.446Z,89.37
2022-10-01T11:32:51.399Z,88.71
2022-10-01T11:33:51.348Z,88.60
2022-10-01T11:34:51.333Z,89.66
2022-10-01T11:35:51.309Z,89.11
2022-10-01T11:36:55.384Z,89.05
2022-10-01T11:37:51.289Z,89.76
2022-10-01T11:38:51.239Z,90.99
2022-10-01T11:39:51.217Z,90.17
2022-10-01T11:40:51.200Z,89.81
2022-10-01T11:41:51.176Z,90.68
2022-10-01T11:42:51.179Z,90.58
2022-10-01T11:43:51.136Z,89.42
2022-10-01T11:44:51.129Z,89.62
2022-10-01T11:45:51.092Z,89.92
2022-10-01T11:46:51.087Z,89.37
2022-10-01T11:47:51.066Z,87.95
2022-10-01T11:48:51.035Z,88.60
2022-10-01T11:49:50.994Z,88.10
2022-10-01T11:50:50.975Z,87.69
2022-10-01T11:51:50.959Z,88.85
2022-10-01T11:52:50.956Z,88.95
2022-10-01T11:53:50.904Z,89.97
2022-10-01T11:54:54.292Z,90.07
2022-10-01T11:55:52.869Z,89.91
2022-10-01T11:56:50.901Z,90.11
2022-10-01T11:57:50.848Z,90.77
2022-10-01T11:58:50.796Z,90.97
2022-10-01T11:59:50.814Z,91.48
2022-10-01T12:00:50.764Z,91.38
2022-10-01T12:01:50.764Z,91.07
2022-10-01T12:02:50.707Z,91.58
2022-10-01T12:03:50.683Z,90.97
2022-10-01T12:04:50.718Z,91.22
2022-10-01T12:05:50.720Z,90.91
2022-10-01T12:06:50.611Z,91.97
2022-10-01T12:07:51.612Z,91.97
2022-10-01T12:08:50.570Z,93.19
2022-10-01T12:09:50.551Z,93.19
2022-10-01T12:10:50.525Z,93.60
2022-10-01T12:11:50.510Z,93.19
2022-10-01T12:12:50.535Z,93.09
2022-10-01T12:13:50.467Z,93.60
2022-10-01T12:14:50.455Z,93.60
2022-10-01T12:15:50.454Z,93.90
2022-10-01T12:16:50.521Z,93.60
2022-10-01T12:17:50.490Z,93.80
2022-10-01T12:18:50.345Z,94.72
2022-10-01T12:19:50.333Z,94.62
2022-10-01T12:20:50.293Z,94.52
2022-10-01T12:21:50.273Z,94.72
2022-10-01T12:22:50.279Z,95.64
2022-10-01T12:23:50.229Z,96.19
2022-10-01T12:24:50.216Z,95.94
2022-10-01T12:25:50.185Z,96.25
2022-10-01T12:26:50.177Z,94.78
2022-10-01T12:27:50.225Z,95.64
2022-10-01T12:28:53.586Z,95.18
2022-10-01T12:29:52.093Z,95.43
2022-10-01T12:30:50.072Z,95.49
2022-10-01T12:31:50.194Z,95.69
2022-10-01T12:32:50.050Z,95.39
2022-10-01T12:33:49.999Z,95.59
2022-10-01T12:34:54.039Z,96.30
2022-10-01T12:35:50.955Z,96.25
2022-10-01T12:36:49.935Z,96.86
2022-10-01T12:37:49.944Z,97.32
2022-10-01T12:38:49.916Z,98.49
2022-10-01T12:39:49.864Z,98.14
2022-10-01T12:40:49.843Z,97.89
2022-10-01T12:41:49.816Z,96.42
2022-10-01T12:42:49.829Z,95.70
2022-10-01T12:43:49.801Z,95.09
2022-10-01T12:44:49.750Z,95.86
2022-10-01T12:45:49.767Z,95.05
2022-10-01T12:46:49.705Z,94.40
2022-10-01T12:47:49.678Z,94.50
2022-10-01T12:48:50.419Z,95.92
2022-10-01T12:49:49.644Z,95.25
2022-10-01T12:50:49.613Z,94.34
2022-10-01T12:51:49.595Z,94.09